You are not logged in, Click here to log in
漢堡機場 HAM / EDDH 德國 漢堡
ICAO: EDDH Country: 德國 漢堡
Latitude: 53.6304 Longitude: 9.98823
Total Arrivals: 4 Total Departures: 4
Latest Arrival: FS16 (LEPA-EDDH)CHU. CHUHAO Latest Departure: FS17 (EDDH-LKPR)CHU. CHUHAO
Scenery:
METAR : EDDH 131050Z 12014KT 9999 BKN011 02/M01 Q0980 R88/190095 BECMG SCT012

漢堡機場 HAM

You are accessing this site from IP address 100.26.176.182. Virtual Airline. CMS by phpVMS.Website designed by Zumeweb and edited by Theo Bearman.
There is 0 User(s) Online: | and 4 Guest(s) Online.
All information on this site is for fight simulation purposes only. This site is for flight logging for pilots of Virtual Airline&模擬飛行論壇 FlySim only.